Time;durP1;ratioP1;P1;durP2;ratioP2;P2;SDS_P1;SDS_P2;PMS_P1;PMS_P2;Temp;Humidity;BMP_temperature;BMP_pressure;BME280_temperature;BME280_humidity;BME280_pressure;Samples;Min_cycle;Max_cycle;Signal;HPM_P1;HPM_P2
2022/11/08 00:01:30;;;;;;;0.77;0.77;;;;;;;12.39;85.09;95806.47;5114023;28;20442;-52
2022/11/08 00:03:09;;;;;;;2.50;0.90;;;;;;;12.79;81.12;95810.09;5113414;28;20430;-51
2022/11/08 00:13:57;;;;;;;0.93;0.73;;;;;;;12.85;81.04;95788.50;5113513;28;20957;-51
2022/11/08 00:16:28;;;;;;;0.80;0.80;;;;;;;12.98;80.63;95809.22;5113357;28;20437;-51
2022/11/08 00:18:56;;;;;;;3.60;0.73;;;;;;;12.87;80.73;95804.22;5113284;28;20437;-51
2022/11/08 00:21:24;;;;;;;1.47;0.40;;;;;;;12.89;81.12;95805.53;5113614;28;20792;-51
2022/11/08 00:23:54;;;;;;;3.10;1.00;;;;;;;12.97;80.62;95807.66;5113146;28;20437;-51
2022/11/08 00:26:22;;;;;;;1.33;1.23;;;;;;;12.87;81.13;95804.22;5113078;28;21123;-51
2022/11/08 00:28:50;;;;;;;0.83;0.80;;;;;;;12.63;82.39;95790.72;5112890;27;20532;-51
2022/11/08 00:31:18;;;;;;;1.03;0.63;;;;;;;12.73;82.30;95791.50;5112794;28;20433;-51
2022/11/08 00:33:48;;;;;;;2.97;1.03;;;;;;;12.89;82.37;95799.41;5113239;28;20938;-51
2022/11/08 00:36:16;;;;;;;0.60;0.60;;;;;;;12.81;82.56;95799.97;5112964;27;20432;-51
2022/11/08 00:38:44;;;;;;;0.43;0.43;;;;;;;12.62;82.73;95773.19;5112696;27;20441;-51
2022/11/08 00:41:13;;;;;;;0.80;0.80;;;;;;;12.85;83.14;95796.50;5113121;28;20414;-51
2022/11/08 00:43:42;;;;;;;0.50;0.40;;;;;;;12.93;82.27;95792.50;5112777;28;20436;-51
2022/11/08 00:46:10;;;;;;;0.50;0.50;;;;;;;12.90;82.42;95785.06;5112745;28;20425;-51
2022/11/08 00:48:38;;;;;;;0.60;0.60;;;;;;;13.05;82.88;95795.66;5112919;28;20436;-51
2022/11/08 00:51:10;;;;;;;1.03;0.60;;;;;;;12.95;81.10;95772.53;5111669;28;20552;-51
2022/11/08 00:53:39;;;;;;;0.90;0.60;;;;;;;12.99;80.70;95794.06;5111909;28;20435;-51
2022/11/08 00:56:10;;;;;;;2.47;0.70;;;;;;;12.98;80.94;95789.81;5112292;28;20451;-51
2022/11/08 00:58:40;;;;;;;0.50;0.50;;;;;;;12.89;81.72;95794.09;5111949;28;20431;-51
2022/11/08 01:01:10;;;;;;;0.97;0.90;;;;;;;12.95;81.78;95782.38;5112376;28;20495;-51
2022/11/08 01:03:38;;;;;;;4.00;0.60;;;;;;;12.89;82.00;95781.59;5112516;28;20434;-51
2022/11/08 01:06:10;;;;;;;0.50;0.50;;;;;;;12.87;81.95;95780.28;5112393;28;21028;-51
2022/11/08 01:08:38;;;;;;;0.97;0.50;;;;;;;12.84;82.64;95780.81;5111120;28;20954;-51
2022/11/08 01:11:09;;;;;;;0.40;0.37;;;;;;;12.44;82.73;95713.41;5111455;28;20482;-51
2022/11/08 01:13:37;;;;;;;0.60;0.60;;;;;;;12.76;83.32;95774.19;5112321;28;20425;-50
2022/11/08 01:16:07;;;;;;;1.03;1.03;;;;;;;12.79;83.85;95776.31;5112122;28;20426;-50
2022/11/08 01:18:36;;;;;;;0.90;0.70;;;;;;;12.53;83.22;95722.41;5112241;28;20428;-51
2022/11/08 01:21:05;;;;;;;0.50;0.33;;;;;;;12.84;83.21;95763.00;5112443;28;20444;-51
2022/11/08 01:23:35;;;;;;;0.60;0.60;;;;;;;12.72;83.86;95765.94;5111581;28;20448;-51
2022/11/08 01:26:05;;;;;;;0.40;0.40;;;;;;;12.80;83.73;95761.94;5111093;28;20473;-51
2022/11/08 01:28:35;;;;;;;0.57;0.50;;;;;;;12.92;84.11;95758.97;5111114;28;20421;-51
2022/11/08 01:31:04;;;;;;;0.50;0.40;;;;;;;12.91;83.47;95771.47;5111560;28;20466;-51
2022/11/08 01:33:33;;;;;;;0.90;0.90;;;;;;;13.05;81.69;95753.88;5111764;28;20422;-51
2022/11/08 01:36:01;;;;;;;1.07;0.70;;;;;;;13.00;81.32;95753.09;5111769;28;20867;-51
2022/11/08 01:38:29;;;;;;;1.03;1.03;;;;;;;13.03;80.72;95753.31;5111012;28;20437;-51
2022/11/08 01:40:59;;;;;;;0.90;0.90;;;;;;;12.73;81.56;95756.91;5110400;28;20440;-51
2022/11/08 01:43:36;;;;;;;0.50;0.43;;;;;;;12.68;83.44;95764.91;5114358;28;20425;-51
2022/11/08 01:46:31;;;;;;;0.50;0.30;;;;;;;12.46;87.58;95759.13;5116164;28;20428;-51
2022/11/08 01:49:19;;;;;;;0.60;0.50;;;;;;;12.33;86.94;95757.03;5115812;28;20439;-51
2022/11/08 01:51:52;;;;;;;5.30;1.47;;;;;;;12.21;85.40;95713.19;5103077;27;21016;-51
2022/11/08 01:54:25;;;;;;;0.50;0.47;;;;;;;12.27;87.48;95734.16;5115724;28;20440;-51
2022/11/08 01:56:56;;;;;;;0.73;0.73;;;;;;;12.49;86.17;95763.91;5115903;28;20419;-51
2022/11/08 01:59:25;;;;;;;1.97;1.87;;;;;;;12.47;85.36;95741.31;5115618;28;20923;-51
2022/11/08 02:01:53;;;;;;;0.87;0.50;;;;;;;11.89;86.28;95669.16;5115669;28;20923;-51
2022/11/08 02:04:22;;;;;;;1.43;0.53;;;;;;;12.26;87.52;95758.38;5115453;28;20439;-51
2022/11/08 02:06:51;;;;;;;0.87;0.87;;;;;;;12.43;86.62;95764.19;5115824;28;20429;-51
2022/11/08 02:09:19;;;;;;;0.97;0.87;;;;;;;12.40;86.42;95757.53;5114301;28;20437;-51
2022/11/08 02:11:49;;;;;;;0.73;0.73;;;;;;;12.42;86.41;95758.06;5115089;28;20498;-51
2022/11/08 02:14:18;;;;;;;1.33;1.23;;;;;;;12.41;85.59;95753.03;5115300;28;20435;-51
2022/11/08 02:16:48;;;;;;;1.07;0.50;;;;;;;12.27;86.75;95747.47;5115365;28;20437;-51
2022/11/08 02:19:27;;;;;;;1.00;1.00;;;;;;;12.35;87.09;95754.88;5115363;28;20425;-51
2022/11/08 02:21:58;;;;;;;2.83;2.17;;;;;;;12.60;85.13;95754.81;5115250;28;20596;-51
2022/11/08 02:24:27;;;;;;;1.23;1.23;;;;;;;12.58;85.68;95748.97;5115117;28;20441;-51
2022/11/08 02:26:57;;;;;;;0.80;0.80;;;;;;;12.44;86.24;95750.63;5114745;28;20467;-51
2022/11/08 02:29:29;;;;;;;1.67;1.07;;;;;;;12.37;86.82;95752.75;5115386;28;20434;-51
2022/11/08 02:31:58;;;;;;;0.70;0.60;;;;;;;12.47;87.18;95751.97;5113898;28;20480;-51
2022/11/08 02:34:29;;;;;;;0.50;0.50;;;;;;;12.49;86.87;95753.28;5115003;28;20929;-51
2022/11/08 02:36:59;;;;;;;1.53;1.43;;;;;;;12.02;88.84;95747.50;5114806;28;20429;-50
2022/11/08 02:39:31;;;;;;;0.50;0.43;;;;;;;12.07;90.04;95756.25;5115162;28;20431;-51
2022/11/08 02:42:00;;;;;;;0.83;0.40;;;;;;;11.79;92.08;95764.78;5114254;28;20911;-51
2022/11/08 02:44:29;;;;;;;0.50;0.50;;;;;;;11.40;95.83;95763.66;5114182;28;20433;-51
2022/11/08 02:46:57;;;;;;;2.10;1.10;;;;;;;11.16;99.63;95773.94;5113905;28;20434;-51
2022/11/08 02:49:25;;;;;;;1.50;1.37;;;;;;;11.11;100.00;95759.84;5114711;28;20425;-51
2022/11/08 02:51:54;;;;;;;0.60;0.40;;;;;;;11.29;100.00;95765.50;5114467;28;20477;-51
2022/11/08 02:54:22;;;;;;;2.20;0.90;;;;;;;11.53;100.00;95771.09;5114271;28;20436;-51
2022/11/08 02:56:52;;;;;;;1.13;0.50;;;;;;;11.72;96.92;95771.41;5114514;28;20424;-51
2022/11/08 02:59:20;;;;;;;0.80;0.40;;;;;;;11.93;94.16;95776.47;5114070;28;20438;-51
2022/11/08 03:01:48;;;;;;;0.60;0.60;;;;;;;11.69;95.58;95774.63;5114347;28;20441;-51
2022/11/08 03:04:17;;;;;;;1.07;0.93;;;;;;;11.68;95.72;95776.47;5114803;28;20496;-51
2022/11/08 03:06:45;;;;;;;0.70;0.70;;;;;;;11.51;96.80;95772.44;5114560;28;20444;-51
2022/11/08 03:09:14;;;;;;;0.57;0.57;;;;;;;11.79;94.33;95774.63;5114265;28;20421;-51
2022/11/08 03:11:42;;;;;;;3.07;1.70;;;;;;;11.78;93.76;95773.00;5114428;28;20499;-51
2022/11/08 03:14:11;;;;;;;0.80;0.80;;;;;;;11.86;93.00;95775.16;5113009;28;20428;-50
2022/11/08 03:16:40;;;;;;;1.40;0.53;;;;;;;11.84;92.29;95774.63;5114335;28;20431;-51
2022/11/08 03:19:08;;;;;;;0.53;0.47;;;;;;;11.79;93.89;95769.31;5114463;28;20426;-51
2022/11/08 03:21:36;;;;;;;4.37;0.83;;;;;;;11.78;93.31;95768.50;5113997;28;20424;-50
2022/11/08 03:24:05;;;;;;;0.40;0.30;;;;;;;11.83;93.55;95765.06;5113367;28;20801;-51
2022/11/08 03:26:33;;;;;;;0.40;0.40;;;;;;;12.06;92.18;95769.81;5113720;28;20477;-51
2022/11/08 03:29:02;;;;;;;16.63;0.87;;;;;;;12.17;91.15;95776.72;5112554;27;20445;-51
2022/11/08 03:31:31;;;;;;;0.57;0.50;;;;;;;12.19;90.10;95765.81;5113245;28;20470;-51
2022/11/08 03:34:00;;;;;;;0.57;0.43;;;;;;;12.19;90.24;95771.94;5113170;27;20427;-50
2022/11/08 03:36:28;;;;;;;0.83;0.43;;;;;;;12.17;89.93;95771.41;5113762;28;20429;-51
2022/11/08 03:38:56;;;;;;;1.43;1.33;;;;;;;12.21;89.58;95776.97;5113048;28;20967;-51
2022/11/08 03:41:24;;;;;;;0.40;0.30;;;;;;;12.22;89.03;95768.72;5113557;28;20438;-50
2022/11/08 03:43:53;;;;;;;0.73;0.73;;;;;;;11.64;91.33;95754.13;5113616;28;20930;-51
2022/11/08 03:46:21;;;;;;;13.33;0.67;;;;;;;12.01;90.98;95772.50;5112677;28;20437;-51
2022/11/08 03:48:51;;;;;;;1.03;1.00;;;;;;;11.89;91.94;95771.97;5113644;28;20451;-51
2022/11/08 03:51:19;;;;;;;1.80;0.50;;;;;;;12.09;92.04;95769.31;5113531;27;20468;-51
2022/11/08 03:53:48;;;;;;;2.87;0.87;;;;;;;12.48;88.45;95774.81;5113424;28;20425;-51
2022/11/08 03:56:16;;;;;;;0.50;0.50;;;;;;;12.45;87.61;95776.13;5113609;28;20977;-51
2022/11/08 03:58:44;;;;;;;0.83;0.83;;;;;;;12.20;89.84;95770.06;5113103;28;20434;-51
2022/11/08 04:01:12;;;;;;;2.00;0.63;;;;;;;12.07;91.00;95766.91;5113525;28;20869;-51
2022/11/08 04:03:41;;;;;;;1.17;1.13;;;;;;;11.62;91.76;95700.50;5113363;28;20426;-51
2022/11/08 04:06:10;;;;;;;1.10;0.80;;;;;;;12.08;91.73;95762.38;5113043;28;20428;-51
2022/11/08 04:08:38;;;;;;;1.00;1.00;;;;;;;12.12;91.23;95768.75;5112976;28;20787;-51
2022/11/08 04:16:38;;;;;;;0.50;0.50;;;;;;;12.21;91.24;95775.13;5112090;28;20929;-51
2022/11/08 04:21:54;;;;;;;1.17;1.17;;;;;;;12.35;89.63;95775.34;5113288;28;20790;-51
2022/11/08 04:24:23;;;;;;;1.40;1.30;;;;;;;12.26;90.13;95769.81;5112739;28;20427;-51
2022/11/08 04:26:51;;;;;;;1.57;0.80;;;;;;;11.92;91.06;95732.38;5112618;28;20987;-52
2022/11/08 04:29:19;;;;;;;3.20;0.93;;;;;;;12.15;91.62;95772.72;5112765;28;20431;-51
2022/11/08 04:31:48;;;;;;;0.87;0.60;;;;;;;12.06;92.48;95769.81;5112694;28;20479;-51
2022/11/08 04:34:16;;;;;;;2.47;1.17;;;;;;;12.34;91.51;95768.47;5112680;28;20463;-52
2022/11/08 04:36:44;;;;;;;0.90;0.90;;;;;;;12.26;90.50;95779.63;5111393;28;20444;-52
2022/11/08 04:39:14;;;;;;;1.90;0.70;;;;;;;11.83;90.34;95688.03;5113029;28;20436;-51
2022/11/08 04:41:43;;;;;;;2.97;0.50;;;;;;;12.29;90.48;95765.81;5112772;28;20804;-51
2022/11/08 04:44:11;;;;;;;1.33;0.70;;;;;;;12.28;90.38;95767.66;5112477;28;20464;-53
2022/11/08 04:46:39;;;;;;;0.50;0.30;;;;;;;12.27;90.93;95766.06;5112228;28;20791;-51
2022/11/08 04:49:08;;;;;;;3.47;2.37;;;;;;;12.13;90.58;95746.44;5110727;28;20820;-51
2022/11/08 04:51:36;;;;;;;1.10;0.70;;;;;;;12.23;91.15;95769.53;5111651;28;20473;-51
2022/11/08 04:54:06;;;;;;;1.60;0.57;;;;;;;12.25;90.67;95765.53;5112240;28;20428;-51
2022/11/08 04:56:36;;;;;;;0.80;0.70;;;;;;;11.38;90.49;95636.50;5111293;28;20509;-51
2022/11/08 04:59:04;;;;;;;1.07;0.80;;;;;;;12.26;90.72;95772.47;5111222;28;20435;-52
2022/11/08 05:01:38;;;;;;;0.53;0.53;;;;;;;12.28;90.26;95767.66;5112029;28;20436;-51
2022/11/08 05:04:07;;;;;;;5.80;2.10;;;;;;;12.24;91.70;95776.44;5112182;28;20438;-52
2022/11/08 05:06:35;;;;;;;1.60;1.50;;;;;;;12.16;91.52;95775.13;5112127;28;20429;-52
2022/11/08 05:09:04;;;;;;;0.77;0.70;;;;;;;12.21;90.78;95767.16;5112318;28;20786;-51
2022/11/08 05:11:32;;;;;;;1.00;1.00;;;;;;;12.29;90.71;95768.47;5112274;28;20416;-51
2022/11/08 05:14:02;;;;;;;1.30;1.17;;;;;;;12.07;92.49;95766.09;5112103;28;20893;-52
2022/11/08 05:16:31;;;;;;;0.53;0.50;;;;;;;11.70;95.07;95760.25;5111396;28;20430;-52
2022/11/08 05:19:00;;;;;;;1.30;0.83;;;;;;;11.83;96.26;95779.13;5111139;28;20963;-52
2022/11/08 05:24:16;;;;;;;4.40;1.30;;;;;;;11.73;99.13;95780.97;5112019;28;20429;-52
2022/11/08 05:26:47;;;;;;;0.77;0.77;;;;;;;11.86;96.54;95783.13;5111884;28;20471;-55
2022/11/08 05:29:18;;;;;;;1.50;1.40;;;;;;;11.78;96.08;95789.75;5112403;28;20835;-52
2022/11/08 05:31:46;;;;;;;9.63;3.90;;;;;;;11.54;98.75;95787.81;5111653;28;20464;-53
2022/11/08 05:34:15;;;;;;;0.80;0.80;;;;;;;11.46;98.56;95784.63;5112163;28;20515;-52
2022/11/08 05:36:43;;;;;;;1.90;1.80;;;;;;;11.64;97.16;95782.53;5112365;28;20429;-53
2022/11/08 05:39:11;;;;;;;0.67;0.67;;;;;;;11.61;97.81;95791.84;5111806;28;20430;-52
2022/11/08 05:41:39;;;;;;;1.33;1.23;;;;;;;11.74;96.09;95793.22;5111709;28;20792;-52
2022/11/08 05:44:09;;;;;;;0.80;0.80;;;;;;;11.78;95.51;95794.25;5111362;28;20470;-53
2022/11/08 05:46:38;;;;;;;1.53;1.43;;;;;;;11.70;97.12;95786.81;5111282;28;20432;-52
2022/11/08 05:49:07;;;;;;;0.60;0.57;;;;;;;11.84;94.52;95764.00;5111862;28;20425;-51
2022/11/08 05:51:38;;;;;;;0.60;0.57;;;;;;;12.35;91.89;95789.44;5111445;28;20755;-50
2022/11/08 05:54:07;;;;;;;0.90;0.90;;;;;;;12.61;89.43;95793.66;5111792;28;20433;-51
2022/11/08 05:56:35;;;;;;;2.27;0.50;;;;;;;12.49;88.99;95795.81;5111559;28;20780;-51
2022/11/08 05:59:22;;;;;;;2.17;2.07;;;;;;;12.29;90.49;95795.84;5111618;28;20435;-51
2022/11/08 06:01:52;;;;;;;1.40;1.30;;;;;;;12.14;92.26;95801.19;5111713;28;20437;-51
2022/11/08 06:04:20;;;;;;;1.97;1.87;;;;;;;11.60;92.34;95726.50;5111666;28;20428;-51
2022/11/08 06:06:49;;;;;;;2.13;1.53;;;;;;;12.05;93.74;95800.91;5111713;28;20425;-51
2022/11/08 06:09:18;;;;;;;1.90;1.40;;;;;;;11.94;94.45;95803.84;5111405;28;20423;-47
2022/11/08 06:11:47;;;;;;;1.30;1.20;;;;;;;11.59;97.17;95796.59;5111756;28;20419;-48
2022/11/08 06:14:17;;;;;;;1.53;0.90;;;;;;;11.92;98.15;95803.28;5111450;28;20423;-48
2022/11/08 06:16:45;;;;;;;0.97;0.93;;;;;;;12.41;91.96;95809.66;5111760;28;20434;-48
2022/11/08 06:19:15;;;;;;;1.07;1.07;;;;;;;12.34;91.96;95797.69;5111609;28;20926;-47
2022/11/08 06:21:43;;;;;;;2.47;2.27;;;;;;;12.70;89.23;95802.66;5111443;28;20907;-52
2022/11/08 06:24:11;;;;;;;1.17;1.17;;;;;;;12.65;89.01;95805.34;5111622;28;20908;-51
2022/11/08 06:26:40;;;;;;;0.87;0.63;;;;;;;12.64;89.39;95802.97;5111088;28;20477;-51
2022/11/08 06:29:08;;;;;;;3.77;1.47;;;;;;;12.79;88.21;95804.78;5113149;28;20422;-51
2022/11/08 06:31:36;;;;;;;2.70;1.27;;;;;;;12.86;87.20;95805.28;5115312;27;20437;-51
2022/11/08 06:34:10;;;;;;;2.63;1.60;;;;;;;12.86;86.66;95811.41;5114365;28;20547;-50
2022/11/08 06:36:40;;;;;;;0.93;0.93;;;;;;;12.82;87.40;95809.56;5114785;28;20426;-51
2022/11/08 06:39:08;;;;;;;1.43;1.33;;;;;;;12.59;88.21;95821.59;5114852;28;20428;-52
2022/11/08 06:41:36;;;;;;;1.33;1.33;;;;;;;12.92;87.72;95820.97;5114422;28;20439;-52
2022/11/08 06:44:05;;;;;;;2.20;1.50;;;;;;;13.06;85.97;95831.81;5114751;28;20440;-51
2022/11/08 06:46:33;;;;;;;1.47;1.37;;;;;;;12.72;86.80;95824.47;5114646;28;20493;-51
2022/11/08 06:49:01;;;;;;;1.47;1.37;;;;;;;13.20;86.71;95835.53;5114398;28;20443;-52
2022/11/08 06:51:30;;;;;;;1.50;1.40;;;;;;;13.37;84.29;95820.00;5114426;28;20434;-52
2022/11/08 06:54:02;;;;;;;5.10;3.03;;;;;;;13.40;82.46;95831.97;5114305;28;20469;-53
2022/11/08 06:56:35;;;;;;;5.03;3.13;;;;;;;14.18;80.44;95833.59;5114425;28;20427;-52
2022/11/08 06:59:04;;;;;;;8.13;1.80;;;;;;;14.64;78.63;95834.03;5114321;27;20431;-52
2022/11/08 07:01:32;;;;;;;0.90;0.63;;;;;;;15.00;76.21;95829.91;5114055;28;20437;-52
2022/11/08 07:04:00;;;;;;;0.60;0.57;;;;;;;14.38;76.13;95833.47;5114205;27;20813;-52
2022/11/08 07:06:30;;;;;;;2.70;2.60;;;;;;;14.38;76.45;95828.13;5114470;28;20432;-52
2022/11/08 07:08:59;;;;;;;1.47;1.37;;;;;;;14.29;75.75;95770.34;5114296;27;20435;-52
2022/11/08 07:11:28;;;;;;;2.97;2.17;;;;;;;14.75;76.13;95824.84;5113928;28;20440;-52
2022/11/08 07:13:56;;;;;;;2.00;0.97;;;;;;;14.98;74.26;95821.38;5114113;28;21009;-53
2022/11/08 07:16:24;;;;;;;1.57;0.83;;;;;;;15.51;73.15;95822.09;5114415;28;20909;-52
2022/11/08 07:18:54;;;;;;;3.33;2.07;;;;;;;15.25;72.06;95826.16;5114079;28;20539;-52
2022/11/08 07:21:23;;;;;;;2.20;2.10;;;;;;;15.52;72.25;95814.88;5113865;28;20504;-52
2022/11/08 07:23:51;;;;;;;1.27;1.17;;;;;;;15.71;70.68;95807.69;5113786;28;20430;-53
2022/11/08 07:26:21;;;;;;;5.07;1.70;;;;;;;15.59;70.75;95816.13;5113351;28;20469;-53
2022/11/08 07:28:49;;;;;;;5.50;1.83;;;;;;;15.06;72.79;95820.75;5113997;27;20820;-53
2022/11/08 07:31:18;;;;;;;1.27;1.23;;;;;;;15.66;70.59;95821.13;5113821;28;20435;-54
2022/11/08 07:33:46;;;;;;;0.90;0.90;;;;;;;16.04;70.82;95811.97;5113937;28;20474;-53
2022/11/08 07:36:14;;;;;;;0.70;0.70;;;;;;;15.88;69.29;95816.78;5113930;28;20432;-54
2022/11/08 07:38:43;;;;;;;2.27;2.10;;;;;;;15.89;69.99;95815.69;5113464;28;20426;-54
2022/11/08 07:41:11;;;;;;;5.50;4.83;;;;;;;15.66;69.03;95815.78;5112719;28;20432;-53
2022/11/08 07:43:41;;;;;;;1.00;0.90;;;;;;;15.73;69.34;95822.34;5113481;28;20438;-54
2022/11/08 07:46:09;;;;;;;0.60;0.50;;;;;;;15.80;69.43;95821.97;5113807;28;20422;-53
2022/11/08 07:48:37;;;;;;;1.53;0.50;;;;;;;15.52;70.22;95822.91;5113671;28;20431;-53
2022/11/08 07:51:06;;;;;;;1.00;1.00;;;;;;;15.76;70.59;95818.31;5113272;28;20441;-54
2022/11/08 07:53:34;;;;;;;1.53;1.30;;;;;;;15.92;70.30;95810.84;5113281;28;20495;-54
2022/11/08 07:56:03;;;;;;;2.13;2.03;;;;;;;16.01;68.60;95812.59;5113473;28;20430;-54
2022/11/08 07:58:31;;;;;;;1.33;1.23;;;;;;;16.01;69.36;95809.09;5113538;28;20430;-54
2022/11/08 08:01:02;;;;;;;0.67;0.63;;;;;;;16.52;69.68;95804.53;5113280;28;20458;-54
2022/11/08 08:03:30;;;;;;;2.07;1.90;;;;;;;16.54;69.02;95801.56;5113146;28;20504;-54
2022/11/08 08:05:59;;;;;;;1.63;1.53;;;;;;;17.44;67.21;95794.44;5112982;28;20431;-54
2022/11/08 08:08:28;;;;;;;2.20;1.70;;;;;;;18.18;65.47;95794.94;5112880;28;20427;-55
2022/11/08 08:10:59;;;;;;;1.70;1.17;;;;;;;18.93;63.78;95789.53;5113512;28;20442;-55
2022/11/08 08:13:28;;;;;;;2.00;1.90;;;;;;;19.51;62.11;95791.94;5113211;28;20486;-55
2022/11/08 08:15:58;;;;;;;1.43;0.77;;;;;;;19.96;59.70;95787.88;5113254;28;20431;-57
2022/11/08 08:18:29;;;;;;;1.93;1.33;;;;;;;19.68;57.85;95729.34;5112944;28;20428;-56
2022/11/08 08:20:57;;;;;;;2.17;1.60;;;;;;;19.93;55.87;95791.22;5112844;28;20427;-55
2022/11/08 08:23:25;;;;;;;1.70;1.60;;;;;;;20.58;55.49;95791.00;5112809;28;20436;-55
2022/11/08 08:25:54;;;;;;;2.07;1.90;;;;;;;20.89;54.11;95788.06;5112526;28;21003;-56
2022/11/08 08:28:22;;;;;;;2.83;2.73;;;;;;;20.44;52.94;95790.38;5112662;28;20952;-55
2022/11/08 08:30:50;;;;;;;4.97;1.30;;;;;;;20.27;54.51;95780.44;5112687;28;20527;-54
2022/11/08 08:33:19;;;;;;;5.57;1.73;;;;;;;20.41;54.68;95790.25;5112921;28;20795;-54
2022/11/08 08:35:59;;;;;;;4.23;1.43;;;;;;;20.41;53.25;95753.34;5112922;28;20415;-53
2022/11/08 08:38:29;;;;;;;2.23;2.13;;;;;;;21.02;52.07;95788.97;5112847;28;20431;-53
2022/11/08 08:40:57;;;;;;;1.03;0.87;;;;;;;21.91;52.94;95802.13;5112704;28;20428;-53
2022/11/08 08:43:27;;;;;;;0.87;0.80;;;;;;;22.83;48.84;95797.34;5112226;28;20946;-53
2022/11/08 08:45:59;;;;;;;2.67;2.57;;;;;;;21.68;49.25;95790.06;5112503;28;20439;-52
2022/11/08 08:48:27;;;;;;;13.10;1.00;;;;;;;22.07;48.87;95792.34;5112802;28;20806;-53
2022/11/08 08:50:58;;;;;;;1.40;1.33;;;;;;;21.57;47.92;95746.50;5112604;28;20435;-53
2022/11/08 08:53:26;;;;;;;1.13;0.90;;;;;;;21.75;48.80;95793.03;5112561;28;20916;-54
2022/11/08 08:55:54;;;;;;;2.67;1.07;;;;;;;22.09;48.11;95793.59;5112496;28;20809;-54
2022/11/08 08:58:23;;;;;;;1.57;1.47;;;;;;;22.88;47.44;95789.81;5112239;28;20420;-54
2022/11/08 09:00:51;;;;;;;1.00;1.00;;;;;;;23.18;47.58;95787.72;5112170;28;20432;-53
2022/11/08 09:03:39;;;;;;;1.27;1.07;;;;;;;24.54;46.78;95779.44;5111979;28;20439;-54
2022/11/08 09:06:09;;;;;;;2.73;1.87;;;;;;;23.16;45.86;95781.84;5112253;28;20432;-54
2022/11/08 09:08:38;;;;;;;1.13;1.03;;;;;;;22.08;46.68;95793.94;5111797;28;20439;-53
2022/11/08 09:11:06;;;;;;;3.70;1.77;;;;;;;22.26;46.80;95787.25;5111565;28;20428;-53
2022/11/08 09:13:34;;;;;;;1.63;0.70;;;;;;;22.23;47.33;95779.81;5112210;28;20428;-53
2022/11/08 09:16:02;;;;;;;4.30;0.83;;;;;;;23.25;47.89;95769.78;5111942;28;20432;-53
2022/11/08 09:18:31;;;;;;;1.33;1.07;;;;;;;24.83;43.81;95764.75;5112114;28;20420;-53
2022/11/08 09:21:03;;;;;;;1.37;1.27;;;;;;;24.71;41.85;95769.44;5111738;28;20959;-53
2022/11/08 09:23:33;;;;;;;3.53;0.80;;;;;;;23.93;43.48;95759.91;5111289;28;20993;-53
2022/11/08 09:26:03;;;;;;;1.10;1.10;;;;;;;22.75;44.86;95780.09;5111577;28;20483;-53
2022/11/08 09:28:32;;;;;;;1.40;1.20;;;;;;;23.06;44.14;95774.97;5111811;28;20442;-53
2022/11/08 09:31:02;;;;;;;3.27;0.40;;;;;;;24.53;43.24;95771.66;5111817;28;20438;-53
2022/11/08 09:33:31;;;;;;;1.60;1.17;;;;;;;24.22;42.63;95756.13;5112032;28;20442;-53
2022/11/08 09:36:00;;;;;;;1.60;1.60;;;;;;;24.59;43.12;95760.22;5111835;28;20430;-53
2022/11/08 09:38:29;;;;;;;2.17;1.33;;;;;;;25.92;41.67;95765.78;5111748;28;20431;-53
2022/11/08 09:41:14;;;;;;;3.93;2.27;;;;;;;26.32;40.49;95731.69;5112100;28;20420;-53
2022/11/08 09:44:02;;;;;;;5.93;1.27;;;;;;;26.83;39.84;95755.97;5111883;28;20424;-54
2022/11/08 09:46:39;;;;;;;0.67;0.67;;;;;;;28.45;37.50;95747.47;5111969;28;20427;-54
2022/11/08 09:49:15;;;;;;;1.17;1.07;;;;;;;27.49;38.02;95739.97;5112154;28;20974;-54
2022/11/08 09:51:43;;;;;;;1.70;1.57;;;;;;;26.71;37.85;95737.06;5111916;28;20819;-53
2022/11/08 09:54:18;;;;;;;1.77;1.00;;;;;;;26.08;38.99;95750.22;5111792;28;20830;-53
2022/11/08 09:56:50;;;;;;;0.80;0.80;;;;;;;26.35;39.24;95741.84;5111920;28;20422;-53
2022/11/08 09:59:32;;;;;;;4.40;1.30;;;;;;;27.15;39.45;95738.22;5111540;28;20435;-53
2022/11/08 10:02:00;;;;;;;1.70;1.70;;;;;;;28.41;36.31;95732.22;5112177;28;20442;-53
2022/11/08 10:04:31;;;;;;;4.10;1.23;;;;;;;28.33;35.97;95723.19;5113780;28;20426;-53
2022/11/08 10:07:14;;;;;;;18.63;2.43;;;;;;;27.36;37.62;95724.97;5115843;28;20416;-53
2022/11/08 10:09:59;;;;;;;0.87;0.87;;;;;;;26.72;37.11;95719.59;5115662;28;20515;-53
2022/11/08 10:12:39;;;;;;;0.93;0.93;;;;;;;26.74;37.94;95725.47;5115751;28;20428;-53
2022/11/08 10:15:19;;;;;;;0.53;0.50;;;;;;;27.10;37.28;95712.13;5115733;28;20464;-54
2022/11/08 10:18:01;;;;;;;0.90;0.77;;;;;;;29.53;34.13;95713.34;5115509;28;21018;-53
2022/11/08 10:20:41;;;;;;;2.27;1.43;;;;;;;27.89;36.54;95703.13;5115554;28;20421;-54
2022/11/08 10:23:20;;;;;;;1.00;1.00;;;;;;;28.11;34.26;95705.78;5115207;28;20447;-54
2022/11/08 10:25:53;;;;;;;0.70;0.70;;;;;;;28.55;35.14;95697.69;5115425;28;20911;-54
2022/11/08 10:28:26;;;;;;;0.50;0.47;;;;;;;29.55;33.22;95698.16;5115641;28;20436;-53
2022/11/08 10:30:55;;;;;;;0.57;0.57;;;;;;;29.98;32.67;95699.19;5115148;27;20435;-53
2022/11/08 10:33:29;;;;;;;0.50;0.50;;;;;;;29.91;32.68;95696.44;5115188;28;20442;-53
2022/11/08 10:36:02;;;;;;;0.83;0.77;;;;;;;29.07;32.38;95690.41;5113985;27;20463;-53
2022/11/08 10:38:36;;;;;;;1.70;1.60;;;;;;;28.22;33.84;95679.44;5115035;28;20428;-55
2022/11/08 10:41:17;;;;;;;1.00;0.73;;;;;;;28.06;35.17;95676.13;5115028;28;20431;-55
2022/11/08 10:43:52;;;;;;;0.40;0.40;;;;;;;27.83;36.57;95683.59;5114958;28;20436;-54
2022/11/08 10:46:36;;;;;;;5.73;2.10;;;;;;;27.41;36.77;95675.66;5115054;28;20435;-54
2022/11/08 10:49:13;;;;;;;9.23;1.13;;;;;;;27.84;35.57;95678.94;5114946;28;20453;-54
2022/11/08 10:51:42;;;;;;;0.90;0.50;;;;;;;28.64;34.03;95665.47;5114952;28;20428;-56
2022/11/08 10:54:44;;;;;;;1.17;1.07;;;;;;;28.06;34.53;95670.69;5114695;27;20439;-55
2022/11/08 10:57:15;;;;;;;1.10;1.00;;;;;;;26.91;35.70;95667.88;5114734;28;20447;-56
2022/11/08 10:59:45;;;;;;;1.77;1.50;;;;;;;27.36;36.11;95656.91;5114661;28;20531;-56
2022/11/08 11:02:20;;;;;;;1.03;0.90;;;;;;;26.67;36.84;95671.72;5114377;27;20428;-56
2022/11/08 11:04:50;;;;;;;0.73;0.70;;;;;;;26.83;36.75;95656.09;5114270;28;20514;-56
2022/11/08 11:07:32;;;;;;;0.50;0.50;;;;;;;26.76;38.14;95663.34;5114336;28;20488;-56
2022/11/08 11:10:22;;;;;;;0.90;0.67;;;;;;;26.66;37.18;95653.06;5114320;28;20794;-56
2022/11/08 11:12:51;;;;;;;0.70;0.70;;;;;;;26.08;38.00;95655.13;5114115;28;20444;-56
2022/11/08 11:15:21;;;;;;;0.83;0.80;;;;;;;26.17;38.19;95650.25;5113832;28;20479;-56
2022/11/08 11:17:49;;;;;;;4.63;1.23;;;;;;;24.30;40.60;95644.09;5114055;28;20428;-58
2022/11/08 11:20:23;;;;;;;1.47;0.67;;;;;;;25.52;39.42;95649.34;5114152;28;20432;-55
2022/11/08 11:22:52;;;;;;;0.70;0.63;;;;;;;25.09;40.25;95644.88;5114185;28;20440;-56
2022/11/08 11:25:23;;;;;;;1.00;1.00;;;;;;;26.36;38.15;95620.34;5113848;27;20596;-54
2022/11/08 11:27:56;;;;;;;1.27;1.13;;;;;;;25.70;38.75;95637.69;5113746;28;20950;-56
2022/11/08 11:30:29;;;;;;;1.97;1.10;;;;;;;25.86;38.73;95634.91;5114207;28;20797;-60
2022/11/08 11:33:04;;;;;;;0.63;0.63;;;;;;;25.71;39.11;95597.75;5113808;28;20424;-59
2022/11/08 11:35:40;;;;;;;0.57;0.57;;;;;;;25.37;39.80;95636.59;5114010;28;20463;-60
2022/11/08 11:38:17;;;;;;;0.50;0.50;;;;;;;25.27;43.26;95631.72;5114084;28;20424;-59
2022/11/08 11:40:47;;;;;;;0.70;0.50;;;;;;;25.47;38.69;95630.63;5113760;28;20916;-59
2022/11/08 11:43:22;;;;;;;2.17;2.07;;;;;;;23.73;42.79;95627.47;5113896;28;20431;-61
2022/11/08 11:45:57;;;;;;;5.33;1.17;;;;;;;24.59;41.19;95621.22;5114192;27;20427;-64
2022/11/08 11:48:28;;;;;;;0.70;0.70;;;;;;;24.78;40.58;95618.59;5113619;27;20427;-58
2022/11/08 11:50:57;;;;;;;3.33;1.20;;;;;;;25.37;41.12;95609.44;5113520;28;20846;-57
2022/11/08 11:53:31;;;;;;;3.90;0.70;;;;;;;26.76;38.16;95608.94;5113170;28;20493;-56
2022/11/08 11:56:21;;;;;;;0.73;0.73;;;;;;;26.89;36.98;95613.06;5113472;28;20467;-57
2022/11/08 11:59:14;;;;;;;0.87;0.77;;;;;;;26.96;36.91;95613.16;5113381;28;20432;-56
2022/11/08 12:02:03;;;;;;;1.07;0.60;;;;;;;25.91;38.47;95612.13;5082025;28;20436;-58
2022/11/08 12:04:54;;;;;;;0.60;0.60;;;;;;;25.77;40.85;95613.41;5112869;28;20951;-61
2022/11/08 12:07:26;;;;;;;1.43;0.90;;;;;;;24.97;41.78;95610.50;5112961;28;20440;-60
2022/11/08 12:10:15;;;;;;;1.00;0.90;;;;;;;24.83;40.04;95610.19;5113179;28;20428;-60